createdAt,value
2022-11-19T00:00:09.734Z,8.00
2022-11-19T00:02:38.074Z,8.00
2022-11-19T00:05:07.001Z,8.00
2022-11-19T00:07:35.204Z,8.00
2022-11-19T00:10:05.399Z,7.90
2022-11-19T00:12:53.507Z,7.90
2022-11-19T00:15:22.546Z,7.90
2022-11-19T00:17:50.814Z,7.90
2022-11-19T00:20:19.177Z,8.00
2022-11-19T00:22:53.065Z,8.00
2022-11-19T00:25:23.000Z,8.00
2022-11-19T00:27:52.303Z,8.00
2022-11-19T00:30:46.357Z,8.00
2022-11-19T00:33:09.761Z,8.00
2022-11-19T00:35:37.875Z,7.90
2022-11-19T00:38:06.369Z,7.90
2022-11-19T00:40:36.246Z,7.90
2022-11-19T00:43:21.742Z,7.80
2022-11-19T00:45:50.279Z,7.80
2022-11-19T00:48:18.535Z,7.80
2022-11-19T00:50:46.723Z,7.80
2022-11-19T00:53:14.886Z,7.80
2022-11-19T00:55:44.346Z,7.80
2022-11-19T00:58:12.758Z,7.80
2022-11-19T01:00:41.041Z,7.80
2022-11-19T01:03:09.765Z,7.80
2022-11-19T01:05:38.972Z,7.80
2022-11-19T01:08:07.532Z,7.80
2022-11-19T01:10:36.621Z,7.80
2022-11-19T01:13:20.395Z,7.80
2022-11-19T01:15:49.839Z,7.80
2022-11-19T01:18:19.426Z,7.80
2022-11-19T01:20:48.550Z,7.80
2022-11-19T01:23:16.813Z,7.90
2022-11-19T01:25:45.466Z,7.90
2022-11-19T01:28:15.085Z,7.90
2022-11-19T01:30:44.574Z,8.00
2022-11-19T01:33:13.206Z,8.00
2022-11-19T01:35:41.475Z,8.00
2022-11-19T01:38:10.405Z,8.00
2022-11-19T01:40:45.703Z,8.00
2022-11-19T01:43:15.648Z,8.00
2022-11-19T01:45:48.226Z,8.00
2022-11-19T01:48:23.068Z,8.00
2022-11-19T01:50:55.626Z,8.00
2022-11-19T01:53:27.962Z,8.00
2022-11-19T01:55:57.520Z,8.00
2022-11-19T01:58:27.229Z,8.00
2022-11-19T02:00:55.619Z,8.00
2022-11-19T02:03:24.362Z,8.00
2022-11-19T02:05:53.025Z,8.00
2022-11-19T02:08:39.271Z,8.00
2022-11-19T02:12:02.992Z,8.00
2022-11-19T02:14:59.563Z,8.10
2022-11-19T02:17:48.269Z,8.10
2022-11-19T02:20:44.890Z,8.10
2022-11-19T02:24:19.414Z,8.10
2022-11-19T02:27:21.324Z,8.10
2022-11-19T02:30:11.239Z,8.00
2022-11-19T02:32:58.777Z,8.00
2022-11-19T02:35:43.557Z,8.00
2022-11-19T02:38:26.955Z,8.00
2022-11-19T02:41:00.654Z,8.00
2022-11-19T02:43:36.641Z,8.00
2022-11-19T02:46:12.611Z,8.00
2022-11-19T02:48:46.301Z,8.00
2022-11-19T02:51:17.116Z,8.00
2022-11-19T02:53:48.385Z,8.00
2022-11-19T02:56:51.460Z,8.10
2022-11-19T02:59:42.000Z,8.10
2022-11-19T03:02:31.144Z,8.10
2022-11-19T03:05:00.167Z,8.10
2022-11-19T03:07:28.682Z,8.10
2022-11-19T03:10:00.156Z,8.10
2022-11-19T03:12:43.469Z,8.10
2022-11-19T03:15:48.292Z,8.10
2022-11-19T03:18:22.370Z,8.10
2022-11-19T03:20:56.458Z,8.10
2022-11-19T03:23:32.811Z,8.10
2022-11-19T03:26:06.859Z,8.10
2022-11-19T03:28:37.812Z,8.10
2022-11-19T03:31:08.335Z,8.10
2022-11-19T03:33:44.582Z,8.10
2022-11-19T03:36:17.887Z,8.10
2022-11-19T03:38:50.700Z,8.10
2022-11-19T03:41:22.185Z,8.10
2022-11-19T03:43:57.158Z,8.20
2022-11-19T03:46:27.677Z,8.20
2022-11-19T03:48:59.177Z,8.20
2022-11-19T03:51:43.000Z,8.10
2022-11-19T03:54:12.014Z,8.10
2022-11-19T03:56:42.559Z,8.20
2022-11-19T03:59:12.813Z,8.20
2022-11-19T04:01:42.212Z,8.10
2022-11-19T04:04:29.243Z,8.10
2022-11-19T04:06:57.456Z,8.10
2022-11-19T04:09:25.667Z,8.20
2022-11-19T04:14:21.968Z,8.20
2022-11-19T04:16:50.333Z,8.10
2022-11-19T04:19:20.168Z,8.10
2022-11-19T04:21:48.876Z,8.10
2022-11-19T04:24:17.552Z,8.10
2022-11-19T04:26:45.942Z,8.10
2022-11-19T04:29:14.153Z,8.20
2022-11-19T04:31:42.716Z,8.20
2022-11-19T04:34:11.024Z,8.20
2022-11-19T04:36:42.134Z,8.20
2022-11-19T04:39:12.432Z,8.20
2022-11-19T04:41:41.926Z,8.20
2022-11-19T04:44:10.356Z,8.20
2022-11-19T04:46:38.612Z,8.20
2022-11-19T04:49:07.026Z,8.20
2022-11-19T04:51:35.222Z,8.20
2022-11-19T04:54:05.033Z,8.20
2022-11-19T04:56:33.627Z,8.20
2022-11-19T04:59:05.578Z,8.20
2022-11-19T05:01:33.917Z,8.20
2022-11-19T05:04:02.391Z,8.20
2022-11-19T05:06:30.621Z,8.20
2022-11-19T05:08:58.955Z,8.20
2022-11-19T05:11:28.623Z,8.20
2022-11-19T05:13:56.840Z,8.20
2022-11-19T05:16:26.645Z,8.20
2022-11-19T05:18:54.910Z,8.20
2022-11-19T05:21:23.891Z,8.20
2022-11-19T05:23:52.181Z,8.20
2022-11-19T05:26:20.374Z,8.20
2022-11-19T05:28:50.530Z,8.20
2022-11-19T05:31:18.771Z,8.20
2022-11-19T05:33:47.060Z,8.20
2022-11-19T05:36:15.460Z,8.20
2022-11-19T05:38:43.800Z,8.20
2022-11-19T05:41:12.133Z,8.20
2022-11-19T05:43:40.550Z,8.20
2022-11-19T05:46:10.382Z,8.20
2022-11-19T05:48:38.602Z,8.20
2022-11-19T05:51:07.138Z,8.20
2022-11-19T05:53:35.499Z,8.20
2022-11-19T05:56:03.691Z,8.20
2022-11-19T05:58:31.930Z,8.20
2022-11-19T06:01:00.833Z,8.20
2022-11-19T06:03:30.603Z,8.20
2022-11-19T06:05:58.860Z,8.20
2022-11-19T06:08:27.154Z,8.20
2022-11-19T06:10:55.481Z,8.20
2022-11-19T06:13:23.600Z,8.20
2022-11-19T06:15:51.693Z,8.20
2022-11-19T06:18:19.936Z,8.20
2022-11-19T06:20:49.424Z,8.20
2022-11-19T06:23:18.286Z,8.20
2022-11-19T06:25:46.375Z,8.20
2022-11-19T06:28:14.550Z,8.20
2022-11-19T06:30:42.716Z,8.30
2022-11-19T06:33:10.830Z,8.20
2022-11-19T06:35:39.321Z,8.30
2022-11-19T06:38:08.793Z,8.30
2022-11-19T06:40:37.112Z,8.20
2022-11-19T06:43:05.275Z,8.30
2022-11-19T06:45:33.407Z,8.20
2022-11-19T06:48:01.562Z,8.30
2022-11-19T06:50:30.157Z,8.20
2022-11-19T06:52:59.161Z,8.20
2022-11-19T06:55:28.758Z,8.20
2022-11-19T06:57:57.789Z,8.20
2022-11-19T07:00:25.999Z,8.20
2022-11-19T07:02:54.260Z,8.20
2022-11-19T07:05:22.400Z,8.20
2022-11-19T07:07:50.601Z,8.20
2022-11-19T07:10:19.170Z,8.20
2022-11-19T07:12:48.614Z,8.20
2022-11-19T07:15:16.918Z,8.30
2022-11-19T07:17:45.063Z,8.20
2022-11-19T07:20:13.957Z,8.30
2022-11-19T07:22:42.633Z,8.30
2022-11-19T07:25:13.323Z,8.30
2022-11-19T07:27:42.628Z,8.40
2022-11-19T07:30:13.045Z,8.40
2022-11-19T07:32:41.303Z,8.40
2022-11-19T07:35:10.614Z,8.40
2022-11-19T07:37:40.084Z,8.40
2022-11-19T07:40:10.911Z,8.40
2022-11-19T07:42:50.499Z,8.50
2022-11-19T07:45:21.725Z,8.50
2022-11-19T07:47:50.505Z,8.50
2022-11-19T07:50:18.975Z,8.60
2022-11-19T07:52:47.273Z,8.60
2022-11-19T07:55:15.858Z,8.50
2022-11-19T07:57:44.007Z,8.50
2022-11-19T08:00:15.296Z,8.60
2022-11-19T08:02:44.801Z,8.60
2022-11-19T08:05:13.254Z,8.60
2022-11-19T08:07:41.647Z,8.60
2022-11-19T08:10:11.490Z,8.70
2022-11-19T08:12:39.622Z,8.80
2022-11-19T08:15:09.831Z,9.00
2022-11-19T08:18:06.994Z,9.10
2022-11-19T08:20:36.482Z,9.10
2022-11-19T08:23:04.675Z,9.20
2022-11-19T08:25:32.818Z,9.20
2022-11-19T08:28:01.022Z,9.20
2022-11-19T08:30:29.892Z,9.30
2022-11-19T08:32:58.053Z,9.40
2022-11-19T08:35:26.548Z,9.50
2022-11-19T08:37:56.187Z,9.60
2022-11-19T08:40:24.387Z,9.60
2022-11-19T08:43:00.642Z,9.70
2022-11-19T08:45:32.185Z,9.80
2022-11-19T08:48:03.274Z,9.90
2022-11-19T08:50:32.122Z,9.90
2022-11-19T08:53:04.281Z,9.80
2022-11-19T08:55:33.597Z,9.80
2022-11-19T08:58:03.241Z,9.70
2022-11-19T09:00:33.012Z,9.70
2022-11-19T09:03:01.263Z,9.70
2022-11-19T09:05:29.653Z,9.70
2022-11-19T09:07:57.803Z,9.70
2022-11-19T09:10:27.958Z,9.70
2022-11-19T09:12:56.073Z,9.70
2022-11-19T09:15:24.350Z,9.70
2022-11-19T09:17:53.414Z,9.70
2022-11-19T09:20:21.645Z,9.70
2022-11-19T09:22:49.849Z,9.70
2022-11-19T09:25:18.214Z,9.60
2022-11-19T09:27:47.685Z,9.60
2022-11-19T09:30:16.356Z,9.60
2022-11-19T09:32:44.595Z,9.70
2022-11-19T09:35:13.852Z,9.70
2022-11-19T09:37:41.976Z,9.80
2022-11-19T09:40:17.573Z,9.80
2022-11-19T09:43:02.033Z,9.90
2022-11-19T09:45:47.468Z,9.90
2022-11-19T09:48:29.142Z,9.90
2022-11-19T09:51:02.115Z,10.00
2022-11-19T09:53:35.779Z,10.00
2022-11-19T09:56:04.373Z,10.00
2022-11-19T09:58:39.604Z,10.00
2022-11-19T10:01:08.295Z,10.00
2022-11-19T10:03:37.270Z,10.00
2022-11-19T10:06:21.436Z,10.10
2022-11-19T10:09:10.312Z,10.10
2022-11-19T10:12:02.977Z,10.10
2022-11-19T10:15:13.345Z,10.10
2022-11-19T10:17:55.958Z,10.20
2022-11-19T10:20:47.183Z,10.20
2022-11-19T10:23:19.030Z,10.20
2022-11-19T10:25:49.857Z,10.20
2022-11-19T10:28:23.307Z,10.30
2022-11-19T10:30:57.082Z,10.30
2022-11-19T10:33:31.952Z,10.40
2022-11-19T10:36:05.881Z,10.40
2022-11-19T10:38:38.918Z,10.30
2022-11-19T10:41:15.792Z,10.30
2022-11-19T10:43:48.665Z,10.30
2022-11-19T10:46:23.687Z,10.20
2022-11-19T10:48:56.008Z,10.20
2022-11-19T10:51:30.329Z,10.10
2022-11-19T10:53:59.487Z,10.10
2022-11-19T10:56:40.829Z,10.10
2022-11-19T10:59:14.067Z,10.10
2022-11-19T11:01:46.865Z,10.00
2022-11-19T11:04:20.197Z,10.00
2022-11-19T11:06:55.182Z,10.00
2022-11-19T11:09:33.057Z,10.00
2022-11-19T11:12:29.381Z,10.00
2022-11-19T11:15:02.331Z,10.00
2022-11-19T11:17:35.316Z,9.90
2022-11-19T11:20:09.167Z,9.90
2022-11-19T11:22:38.067Z,9.80
2022-11-19T11:25:21.215Z,9.80
2022-11-19T11:28:07.883Z,9.80
2022-11-19T11:30:36.582Z,9.80
2022-11-19T11:36:03.976Z,9.70
2022-11-19T11:38:32.958Z,9.60
2022-11-19T11:44:02.723Z,9.60
2022-11-19T11:46:43.900Z,9.60
2022-11-19T11:49:25.041Z,9.60
2022-11-19T11:52:08.356Z,9.60
2022-11-19T11:54:37.893Z,9.60
2022-11-19T11:57:20.855Z,9.60
2022-11-19T11:59:49.745Z,9.60
2022-11-19T12:02:29.927Z,9.60
2022-11-19T12:05:02.337Z,9.60
2022-11-19T12:08:04.980Z,9.60
2022-11-19T12:10:45.031Z,9.60
2022-11-19T12:13:56.908Z,9.60
2022-11-19T12:16:57.316Z,9.60
2022-11-19T12:19:42.823Z,9.60
2022-11-19T12:22:21.137Z,9.60
2022-11-19T12:25:22.021Z,9.50
2022-11-19T12:28:31.606Z,9.50
2022-11-19T12:31:17.998Z,9.50
2022-11-19T12:34:21.162Z,9.50
2022-11-19T12:37:00.252Z,9.50
2022-11-19T12:39:46.660Z,9.50
2022-11-19T12:42:45.711Z,9.50
2022-11-19T12:45:25.586Z,9.50
2022-11-19T12:48:42.909Z,9.50
2022-11-19T12:51:22.499Z,9.40
2022-11-19T12:54:16.934Z,9.40
2022-11-19T12:56:58.713Z,9.40
2022-11-19T12:59:47.557Z,9.40
2022-11-19T13:02:24.238Z,9.40
2022-11-19T13:04:58.727Z,9.40
2022-11-19T13:07:32.603Z,9.40
2022-11-19T13:10:07.364Z,9.30
2022-11-19T13:12:42.553Z,9.30
2022-11-19T13:15:20.653Z,9.30
2022-11-19T13:17:53.068Z,9.20
2022-11-19T13:20:27.722Z,9.20
2022-11-19T13:23:03.097Z,9.20
2022-11-19T13:25:36.894Z,9.20
2022-11-19T13:28:21.357Z,9.20
2022-11-19T13:30:54.247Z,9.20
2022-11-19T13:33:28.151Z,9.20
2022-11-19T13:36:04.634Z,9.20
2022-11-19T13:38:44.651Z,9.10
2022-11-19T13:41:19.508Z,9.10
2022-11-19T13:44:05.683Z,9.10
2022-11-19T13:46:40.377Z,9.10
2022-11-19T13:49:17.972Z,9.20
2022-11-19T13:51:50.223Z,9.10
2022-11-19T13:54:26.181Z,9.10
2022-11-19T13:56:58.213Z,9.10
2022-11-19T13:59:35.077Z,9.10
2022-11-19T14:02:59.082Z,9.10
2022-11-19T14:06:06.630Z,9.10
2022-11-19T14:08:52.937Z,9.20
2022-11-19T14:11:49.999Z,9.30
2022-11-19T14:15:00.880Z,9.20
2022-11-19T14:17:59.959Z,9.20
2022-11-19T14:20:57.799Z,9.20
2022-11-19T14:24:06.608Z,9.20
2022-11-19T14:27:18.205Z,9.10
2022-11-19T14:29:56.610Z,9.10
2022-11-19T14:32:46.643Z,9.10
2022-11-19T14:35:39.015Z,9.10
2022-11-19T14:38:37.301Z,9.10
2022-11-19T14:41:32.124Z,9.00
2022-11-19T14:44:33.839Z,9.10
2022-11-19T14:47:37.322Z,9.10
2022-11-19T14:50:09.870Z,9.10
2022-11-19T14:52:40.916Z,9.00
2022-11-19T14:55:22.776Z,8.80
2022-11-19T14:57:59.777Z,8.80
2022-11-19T15:00:32.757Z,8.70
2022-11-19T15:03:04.348Z,8.60
2022-11-19T15:05:34.996Z,8.50
2022-11-19T15:08:31.106Z,8.40
2022-11-19T15:11:08.762Z,8.30
2022-11-19T15:13:39.280Z,8.20
2022-11-19T15:16:13.212Z,8.10
2022-11-19T15:19:30.987Z,8.00
2022-11-19T15:22:34.243Z,7.90
2022-11-19T15:25:30.768Z,7.80
2022-11-19T15:28:24.597Z,7.80
2022-11-19T15:31:12.901Z,7.70
2022-11-19T15:34:19.014Z,7.70
2022-11-19T15:36:50.271Z,7.70
2022-11-19T15:39:25.983Z,7.70
2022-11-19T15:42:03.929Z,7.70
2022-11-19T15:44:40.405Z,7.70
2022-11-19T15:47:14.793Z,7.70
2022-11-19T15:49:45.824Z,7.70
2022-11-19T15:52:22.641Z,7.70
2022-11-19T15:54:50.841Z,7.70
2022-11-19T15:57:25.452Z,7.60
2022-11-19T15:59:58.391Z,7.60
2022-11-19T16:02:36.469Z,7.50
2022-11-19T16:05:07.194Z,7.50
2022-11-19T16:07:35.717Z,7.50
2022-11-19T16:10:05.252Z,7.50
2022-11-19T16:12:51.121Z,7.50
2022-11-19T16:15:41.118Z,7.50
2022-11-19T16:18:17.605Z,7.40
2022-11-19T16:20:51.180Z,7.40
2022-11-19T16:23:21.935Z,7.30
2022-11-19T16:25:50.634Z,7.30
2022-11-19T16:28:24.938Z,7.30
2022-11-19T16:30:55.746Z,7.30
2022-11-19T16:33:27.406Z,7.30
2022-11-19T16:36:14.359Z,7.40
2022-11-19T16:38:46.361Z,7.40
2022-11-19T16:41:32.498Z,7.40
2022-11-19T16:44:04.846Z,7.40
2022-11-19T16:46:34.996Z,7.30
2022-11-19T16:49:04.988Z,7.30
2022-11-19T16:51:38.482Z,7.30
2022-11-19T16:54:09.528Z,7.30
2022-11-19T16:56:43.366Z,7.20
2022-11-19T16:59:20.764Z,7.20
2022-11-19T17:01:59.429Z,7.20
2022-11-19T17:04:31.125Z,7.20
2022-11-19T17:07:01.253Z,7.20
2022-11-19T17:09:34.797Z,7.20
2022-11-19T17:12:18.177Z,7.30
2022-11-19T17:14:56.456Z,7.30
2022-11-19T17:17:36.957Z,7.20
2022-11-19T17:20:59.197Z,7.20
2022-11-19T17:23:31.296Z,7.20
2022-11-19T17:26:01.342Z,7.10
2022-11-19T17:28:36.435Z,7.10
2022-11-19T17:31:16.221Z,7.10
2022-11-19T17:33:56.219Z,7.10
2022-11-19T17:36:27.616Z,7.10
2022-11-19T17:38:57.502Z,7.10
2022-11-19T17:41:46.413Z,7.10
2022-11-19T17:44:39.203Z,7.10
2022-11-19T17:47:22.408Z,7.10
2022-11-19T17:49:52.281Z,7.10
2022-11-19T17:52:26.534Z,7.10
2022-11-19T17:54:59.451Z,7.10
2022-11-19T17:57:27.601Z,7.10
2022-11-19T17:59:55.905Z,7.10
2022-11-19T18:02:24.152Z,7.10
2022-11-19T18:04:53.081Z,7.10
2022-11-19T18:07:21.461Z,7.10
2022-11-19T18:09:49.639Z,7.10
2022-11-19T18:12:21.172Z,7.10
2022-11-19T18:14:49.572Z,7.10
2022-11-19T18:17:17.976Z,7.10
2022-11-19T18:19:46.126Z,7.10
2022-11-19T18:22:19.533Z,7.10
2022-11-19T18:24:49.317Z,7.10
2022-11-19T18:27:19.212Z,7.10
2022-11-19T18:29:47.436Z,7.00
2022-11-19T18:32:16.870Z,7.00
2022-11-19T18:34:46.918Z,7.00
2022-11-19T18:37:15.371Z,7.00
2022-11-19T18:39:43.575Z,7.00
2022-11-19T18:42:12.983Z,7.00
2022-11-19T18:44:43.156Z,7.00
2022-11-19T18:47:13.654Z,7.00
2022-11-19T18:49:42.609Z,7.00
2022-11-19T18:52:15.839Z,7.00
2022-11-19T18:54:44.458Z,7.10
2022-11-19T18:57:13.855Z,7.00
2022-11-19T18:59:43.500Z,7.10
2022-11-19T19:02:12.171Z,7.10
2022-11-19T19:04:40.426Z,7.10
2022-11-19T19:07:08.580Z,7.10
2022-11-19T19:09:37.424Z,7.10
2022-11-19T19:12:18.485Z,7.10
2022-11-19T19:14:51.569Z,7.00
2022-11-19T19:17:20.662Z,7.00
2022-11-19T19:19:49.748Z,7.00
2022-11-19T19:22:18.296Z,7.00
2022-11-19T19:24:46.944Z,7.00
2022-11-19T19:27:15.921Z,7.00
2022-11-19T19:29:44.366Z,7.00
2022-11-19T19:32:13.862Z,7.00
2022-11-19T19:34:41.954Z,6.90
2022-11-19T19:37:10.157Z,6.90
2022-11-19T19:39:38.225Z,7.00
2022-11-19T19:42:06.577Z,7.00
2022-11-19T19:44:34.734Z,6.90
2022-11-19T19:47:03.220Z,6.90
2022-11-19T19:49:37.498Z,6.90
2022-11-19T19:52:07.269Z,6.90
2022-11-19T19:54:35.427Z,6.80
2022-11-19T19:57:03.650Z,6.80
2022-11-19T19:59:31.824Z,6.80
2022-11-19T20:01:59.986Z,6.80
2022-11-19T20:04:28.335Z,6.80
2022-11-19T20:06:57.915Z,6.80
2022-11-19T20:09:26.488Z,6.70
2022-11-19T20:11:55.390Z,6.70
2022-11-19T20:14:23.705Z,6.60
2022-11-19T20:16:51.842Z,6.60
2022-11-19T20:19:19.974Z,6.60
2022-11-19T20:21:48.431Z,6.60
2022-11-19T20:24:19.946Z,6.60
2022-11-19T20:26:48.203Z,6.50
2022-11-19T20:29:17.602Z,6.50
2022-11-19T20:31:47.968Z,6.50
2022-11-19T20:34:17.792Z,6.50
2022-11-19T20:36:46.274Z,6.50
2022-11-19T20:39:14.505Z,6.50
2022-11-19T20:42:01.665Z,6.50
2022-11-19T20:44:30.355Z,6.50
2022-11-19T20:47:00.949Z,6.50
2022-11-19T20:49:31.340Z,6.50
2022-11-19T20:52:00.085Z,6.40
2022-11-19T20:54:29.231Z,6.40
2022-11-19T20:56:59.191Z,6.40
2022-11-19T20:59:28.058Z,6.30
2022-11-19T21:01:57.682Z,6.40
2022-11-19T21:04:28.404Z,6.40
2022-11-19T21:06:56.658Z,6.40
2022-11-19T21:09:25.546Z,6.40
2022-11-19T21:11:53.871Z,6.30
2022-11-19T21:14:23.555Z,6.30
2022-11-19T21:16:51.820Z,6.30
2022-11-19T21:19:20.319Z,6.30
2022-11-19T21:21:48.813Z,6.30
2022-11-19T21:24:16.931Z,6.20
2022-11-19T21:26:45.127Z,6.20
2022-11-19T21:29:13.586Z,6.20
2022-11-19T21:31:45.416Z,6.20
2022-11-19T21:34:15.721Z,6.20
2022-11-19T21:36:45.427Z,6.10
2022-11-19T21:39:16.171Z,6.10
2022-11-19T21:41:45.272Z,6.10
2022-11-19T21:44:18.344Z,6.10
2022-11-19T21:46:51.205Z,6.10
2022-11-19T21:49:19.732Z,6.10
2022-11-19T21:51:48.951Z,6.10
2022-11-19T21:54:17.190Z,6.20
2022-11-19T21:56:45.401Z,6.20
2022-11-19T21:59:13.571Z,6.20
2022-11-19T22:01:41.709Z,6.20
2022-11-19T22:04:13.637Z,6.10
2022-11-19T22:06:42.008Z,6.10
2022-11-19T22:09:10.135Z,6.10
2022-11-19T22:11:38.248Z,6.00
2022-11-19T22:14:09.097Z,6.00
2022-11-19T22:16:40.214Z,6.00
2022-11-19T22:19:11.700Z,6.00
2022-11-19T22:21:40.498Z,6.00
2022-11-19T22:24:08.807Z,5.90
2022-11-19T22:26:37.037Z,5.90
2022-11-19T22:29:05.309Z,5.90
2022-11-19T22:31:33.462Z,5.90
2022-11-19T22:34:01.627Z,6.00
2022-11-19T22:36:33.179Z,5.90
2022-11-19T22:39:01.581Z,5.90
2022-11-19T22:41:29.723Z,5.90
2022-11-19T22:43:58.707Z,5.90
2022-11-19T22:46:26.862Z,5.90
2022-11-19T22:48:55.292Z,5.90
2022-11-19T22:51:26.454Z,5.90
2022-11-19T22:53:56.646Z,5.90
2022-11-19T22:56:27.837Z,5.90
2022-11-19T22:58:56.874Z,5.90
2022-11-19T23:01:28.127Z,5.80
2022-11-19T23:03:58.077Z,5.80
2022-11-19T23:06:26.683Z,5.80
2022-11-19T23:08:56.601Z,5.80
2022-11-19T23:11:39.413Z,5.80
2022-11-19T23:14:10.822Z,5.90
2022-11-19T23:16:39.816Z,5.90
2022-11-19T23:19:08.611Z,6.00
2022-11-19T23:21:37.701Z,5.90
2022-11-19T23:24:08.267Z,6.00
2022-11-19T23:26:36.589Z,5.90
2022-11-19T23:29:06.470Z,5.90
2022-11-19T23:31:38.017Z,5.90
2022-11-19T23:34:06.929Z,6.00
2022-11-19T23:36:37.856Z,6.00
2022-11-19T23:39:10.237Z,6.00
2022-11-19T23:41:38.508Z,5.90
2022-11-19T23:44:06.716Z,6.00
2022-11-19T23:46:36.703Z,6.00
2022-11-19T23:49:06.587Z,6.00
2022-11-19T23:51:37.580Z,6.10
2022-11-19T23:54:07.464Z,6.10
2022-11-19T23:56:36.978Z,6.10
2022-11-19T23:59:06.614Z,6.10
